Latest Weather Observations for Banana Bank

IDQ60801

Issued at 6:02 am EST Tuesday 28 June 2016 (issued every 30 minutes, with the page automatically refreshed every 10 minutes)

About weather observations | Map of weather stations | Latest weather observations for QLD | Other Formats
Station Details ID: 040925 Name: BANANA BANK NORTH BEACON Lat: -27.53 Lon: 153.33 Height: 7.0 m
Data from the previous 72 hours. | See also: Recent months for locations in Queensland
Date/Time
EST
Temp
°C
App
Temp
°C
Dew
Point
°C
Rel
Hum
%
Delta-T
°C
Wind Press
QNH
hPa
Press
MSL
hPa
Rain since
9am
mm
Dir  Spd
km/h
Gust
km/h
Spd
kts
Gust
kts
28/06:00am - - - - - WSW 20 30 11 16 - - -
28/05:30am - - - - - WSW 20 35 11 19 - - -
28/05:00am - - - - - W 22 33 12 18 - - -
28/04:30am - - - - - WSW 20 30 11 16 - - -
28/04:00am - - - - - WSW 20 30 11 16 - - -
28/03:30am - - - - - WSW 19 28 10 15 - - -
28/03:00am - - - - - W 24 35 13 19 - - -
28/02:30am - - - - - W 20 30 11 16 - - -
28/02:00am - - - - - W 20 30 11 16 - - -
28/01:30am - - - - - W 22 32 12 17 - - -
28/01:00am - - - - - W 22 30 12 16 - - -
28/12:30am - - - - - W 30 37 16 20 - - -
28/12:00am - - - - - W 28 33 15 18 - - -
 
Date/Time
EST
Temp
°C
App
Temp
°C
Dew
Point
°C
Rel
Hum
%
Delta-T
°C
Wind Press
QNH
hPa
Press
MSL
hPa
Rain since
9am
mm
Dir  Spd
km/h
Gust
km/h
Spd
kts
Gust
kts
27/11:30pm - - - - - W 30 35 16 19 - - -
27/11:00pm - - - - - WSW 24 32 13 17 - - -
27/10:30pm - - - - - W 19 24 10 13 - - -
27/10:00pm - - - - - WSW 13 20 7 11 - - -
27/09:30pm - - - - - W 15 20 8 11 - - -
27/09:00pm - - - - - WSW 17 28 9 15 - - -
27/08:30pm - - - - - W 22 33 12 18 - - -
27/08:00pm - - - - - W 28 35 15 19 - - -
27/07:30pm - - - - - W 28 39 15 21 - - -
27/07:00pm - - - - - W 32 39 17 21 - - -
27/06:30pm - - - - - W 28 37 15 20 - - -
27/06:00pm - - - - - W 30 44 16 24 - - -
27/05:30pm - - - - - W 33 44 18 24 - - -
27/05:00pm - - - - - WNW 33 50 18 27 - - -
27/04:54pm - - - - - WNW 28 50 15 27 - - -
27/04:30pm - - - - - WNW 32 43 17 23 - - -
27/04:00pm - - - - - W 30 39 16 21 - - -
27/03:30pm - - - - - WNW 33 43 18 23 - - -
27/03:00pm - - - - - WNW 41 50 22 27 - - -
27/02:30pm - - - - - WNW 39 48 21 26 - - -
27/02:00pm - - - - - WNW 28 39 15 21 - - -
27/01:30pm - - - - - WNW 26 32 14 17 - - -
27/01:00pm - - - - - W 30 39 16 21 - - -
27/12:30pm - - - - - W 20 28 11 15 - - -
27/12:00pm - - - - - W 20 32 11 17 - - -
27/11:30am - - - - - NW 15 19 8 10 - - -
27/11:00am - - - - - NW 19 26 10 14 - - -
27/10:30am - - - - - NW 17 20 9 11 - - -
27/10:00am - - - - - NW 13 13 7 7 - - -
27/09:30am - - - - - NW 13 17 7 9 - - -
27/09:00am - - - - - WNW 15 20 8 11 - - -
27/08:30am - - - - - WNW 11 13 6 7 - - -
27/08:00am - - - - - W 13 17 7 9 - - -
27/07:30am - - - - - W 13 17 7 9 - - -
27/07:00am - - - - - WSW 6 9 3 5 - - -
27/06:30am - - - - - WSW 7 9 4 5 - - -
27/06:00am - - - - - WSW 9 15 5 8 - - -
27/05:30am - - - - - WSW 6 9 3 5 - - -
27/05:00am - - - - - WSW 6 9 3 5 - - -
27/04:30am - - - - - W 13 17 7 9 - - -
27/04:00am - - - - - WSW 6 9 3 5 - - -
27/03:30am - - - - - WSW 6 7 3 4 - - -
27/03:00am - - - - - WSW 6 11 3 6 - - -
27/02:30am - - - - - CALM 0 0 0 0 - - -
27/02:00am - - - - - NNE 7 9 4 5 - - -
27/01:30am - - - - - CALM 0 0 0 0 - - -
27/01:00am - - - - - SW 2 4 1 2 - - -
27/12:30am - - - - - S 4 6 2 3 - - -
27/12:00am - - - - - SSW 6 9 3 5 - - -
 
Date/Time
EST
Temp
°C
App
Temp
°C
Dew
Point
°C
Rel
Hum
%
Delta-T
°C
Wind Press
QNH
hPa
Press
MSL
hPa
Rain since
9am
mm
Dir  Spd
km/h
Gust
km/h
Spd
kts
Gust
kts
26/11:30pm - - - - - SW 7 9 4 5 - - -
26/11:00pm - - - - - WSW 6 9 3 5 - - -
26/10:30pm - - - - - SW 4 7 2 4 - - -
26/10:00pm - - - - - CALM 0 0 0 0 - - -
26/09:30pm - - - - - SE 4 6 2 3 - - -
26/09:00pm - - - - - SE 4 6 2 3 - - -
26/08:30pm - - - - - SE 6 6 3 3 - - -
26/08:00pm - - - - - SSE 6 6 3 3 - - -
26/07:30pm - - - - - CALM 0 0 0 0 - - -
26/07:00pm - - - - - S 2 4 1 2 - - -
26/06:30pm - - - - - CALM 0 0 0 0 - - -
26/06:00pm - - - - - CALM 0 0 0 0 - - -
26/05:30pm - - - - - CALM 0 0 0 0 - - -
26/05:00pm - - - - - CALM 0 0 0 0 - - -
26/04:30pm - - - - - CALM 0 4 0 2 - - -
26/04:00pm - - - - - CALM 0 0 0 0 - - -
26/03:30pm - - - - - CALM 0 0 0 0 - - -
26/03:00pm - - - - - CALM 0 0 0 0 - - -
26/02:30pm - - - - - CALM 0 2 0 1 - - -
26/02:00pm - - - - - SSE 4 6 2 3 - - -
26/01:30pm - - - - - E 4 6 2 3 - - -
26/01:00pm - - - - - ENE 4 6 2 3 - - -
26/12:30pm - - - - - ESE 6 7 3 4 - - -
26/12:00pm - - - - - S 6 7 3 4 - - -
26/11:30am - - - - - SSE 6 7 3 4 - - -
26/11:00am - - - - - SSE 2 4 1 2 - - -
26/10:30am - - - - - CALM 0 2 0 1 - - -
26/10:00am - - - - - S 6 9 3 5 - - -
26/09:30am - - - - - S 4 9 2 5 - - -
26/09:00am - - - - - SSW 9 13 5 7 - - -
26/08:30am - - - - - SW 15 19 8 10 - - -
26/08:00am - - - - - SW 13 17 7 9 - - -
26/07:30am - - - - - WSW 13 20 7 11 - - -
26/07:00am - - - - - WSW 11 17 6 9 - - -
26/06:30am - - - - - SW 9 13 5 7 - - -
26/06:00am - - - - - SSW 11 15 6 8 - - -
26/05:30am - - - - - SW 13 17 7 9 - - -
26/05:00am - - - - - SW 11 13 6 7 - - -
26/04:30am - - - - - SW 11 13 6 7 - - -
26/04:00am - - - - - SW 13 17 7 9 - - -
26/03:30am - - - - - SW 13 17 7 9 - - -
26/03:00am - - - - - SW 11 15 6 8 - - -
26/02:30am - - - - - SW 13 17 7 9 - - -
26/02:00am - - - - - SW 11 15 6 8 - - -
26/01:30am - - - - - SW 15 17 8 9 - - -
26/01:00am - - - - - SW 15 17 8 9 - - -
26/12:30am - - - - - SW 17 20 9 11 - - -
26/12:00am - - - - - WSW 15 20 8 11 - - -
 
Date/Time
EST
Temp
°C
App
Temp
°C
Dew
Point
°C
Rel
Hum
%
Delta-T
°C
Wind Press
QNH
hPa
Press
MSL
hPa
Rain since
9am
mm
Dir  Spd
km/h
Gust
km/h
Spd
kts
Gust
kts
25/11:30pm - - - - - WSW 11 20 6 11 - - -
25/11:00pm - - - - - WSW 15 24 8 13 - - -
25/10:30pm - - - - - W 15 20 8 11 - - -
25/10:00pm - - - - - W 13 15 7 8 - - -
25/09:30pm - - - - - W 13 15 7 8 - - -
25/09:00pm - - - - - WNW 11 13 6 7 - - -
25/08:30pm - - - - - WNW 11 13 6 7 - - -
25/08:00pm - - - - - W 9 11 5 6 - - -
25/07:30pm - - - - - N 6 9 3 5 - - -
25/07:00pm - - - - - NE 6 9 3 5 - - -
25/06:30pm - - - - - NNE 9 15 5 8 - - -
25/06:00pm - - - - - E 4 6 2 3 - - -
25/05:30pm - - - - - W 4 6 2 3 - - -
25/05:00pm - - - - - W 7 11 4 6 - - -
25/04:30pm - - - - - W 6 7 3 4 - - -
25/04:00pm - - - - - SW 7 17 4 9 - - -
25/03:30pm - - - - - WSW 2 11 1 6 - - -
25/03:00pm - - - - - SW 4 11 2 6 - - -
25/02:30pm - - - - - SSW 11 20 6 11 - - -
25/02:00pm - - - - - S 7 15 4 8 - - -
25/01:30pm - - - - - SSW 9 13 5 7 - - -
25/01:00pm - - - - - SW 9 19 5 10 - - -
25/12:30pm - - - - - WSW 7 17 4 9 - - -
25/12:00pm - - - - - WSW 13 20 7 11 - - -
25/11:30am - - - - - WSW 15 28 8 15 - - -
25/11:00am - - - - - WSW 17 26 9 14 - - -
25/10:30am - - - - - WSW 17 26 9 14 - - -
25/10:00am - - - - - WSW 22 35 12 19 - - -
25/09:30am - - - - - WSW 13 20 7 11 - - -
25/09:00am - - - - - WSW 15 24 8 13 - - -
25/08:30am - - - - - W 24 30 13 16 - - -
25/08:00am - - - - - W 19 24 10 13 - - -
25/07:30am - - - - - W 19 20 10 11 - - -
25/07:00am - - - - - W 17 20 9 11 - - -
25/06:30am - - - - - WSW 11 15 6 8 - - -

Other Formats:

Comma delimited format used in spreadsheet applications
http://www.bom.gov.au/fwo/IDQ60801/IDQ60801.94591.axf

JavaScript Object Notation format (JSON) in row-major order
http://www.bom.gov.au/fwo/IDQ60801/IDQ60801.94591.json